Latest Weather Observations for Falls Creek

IDV60801

Issued at 11:02 am EDT Thursday 5 March 2015 (issued every 30 minutes, with the page automatically refreshed every 10 minutes)

About weather observations | Map of weather stations | Latest weather observations for VIC | Other Formats
Station Details ID: 083084 Name: FALLS CREEK Lat: -36.87 Lon: 147.28 Height: 1765.0 m
Data from the previous 72 hours. | See also: Recent months at Falls Creek
Date/Time
EDT
Temp
°C
App
Temp
°C
Dew
Point
Rel
Hum
%
Delta-T
°C
Wind Press
QNH
hPa
Press
MSL
hPa
Rain
since 9 am
mm
Dir
 
Spd
km/h
Gust
km/h
Spd
kts
Gust
kts
05/11:00am 3.7 -7.6 -5.0 53 3.3 SSW 46 57 25 31 1013.1 1006.9 0.0
05/10:32am 3.1 -8.7 -5.5 53 3.3 SSW 48 69 26 37 1012.9 1006.6 0.0
05/10:30am 3.3 -7.7 -5.3 53 3.2 SSW 44 61 24 33 1013.0 1006.8 0.0
05/10:27am 3.5 -6.6 -5.9 50 3.4 SSW 39 59 21 32 1013.0 1006.8 0.0
05/10:00am 2.7 -7.5 -6.4 51 3.4 SSW 39 50 21 27 1012.3 1006.0 0.0
05/09:51am 2.5 -8.1 -6.6 51 3.4 SSW 41 59 22 32 1012.1 1005.9 0.0
05/09:30am 2.5 -9.5 -7.4 48 3.6 SSW 48 63 26 34 1011.5 1005.3 0.0
05/09:09am 3.0 -8.0 -5.4 54 3.2 SSW 44 65 24 35 1011.8 1005.5 0.0
05/09:00am 2.7 -7.6 -4.5 59 2.7 SSW 41 52 22 28 1011.4 1005.2 0.0
05/08:30am 2.7 -6.0 -0.4 80 1.3 SSW 35 50 19 27 1011.2 1004.9 0.0
05/08:24am 3.0 -4.3 -0.3 79 1.4 SSW 28 50 15 27 1011.3 1005.0 0.0
05/08:00am 3.0 -5.0 0.4 83 1.1 SW 32 43 17 23 1011.2 1004.9 0.0
05/07:41am 2.8 -5.8 0.4 84 1.0 WSW 35 54 19 29 1010.8 1004.6 0.0
05/07:30am 3.1 -6.3 -0.2 79 1.4 WSW 39 54 21 29 1010.6 1004.3 0.0
05/07:00am 3.7 -5.5 1.4 85 1.0 WSW 39 57 21 31 1010.1 1003.8 0.0
05/06:30am 4.3 -3.3 3.9 97 0.2 W 33 52 18 28 1010.0 1003.7 0.0
05/06:00am 4.7 -1.6 3.8 94 0.4 WNW 26 43 14 23 1009.9 1003.6 0.0
05/05:30am 5.1 -2.9 3.6 90 0.7 W 35 57 19 31 1009.8 1003.4 0.0
05/05:06am 5.1 -4.6 3.0 86 1.0 W 43 61 23 33 1009.5 1003.2 0.0
05/05:00am 5.1 -5.1 3.0 86 1.0 W 46 61 25 33 1009.2 1002.8 0.0
05/04:30am 5.4 -3.3 3.9 90 0.7 WNW 39 59 21 32 1009.0 1002.7 0.0
05/04:23am 5.6 -3.2 3.6 87 0.9 WNW 39 57 21 31 1009.3 1003.0 0.0
05/04:21am 5.5 -3.3 3.5 87 0.9 WNW 39 57 21 31 1009.3 1003.0 0.0
05/04:00am 5.6 -1.1 3.4 86 1.0 NW 28 52 15 28 1009.4 1003.1 0.0
05/03:31am 5.4 -2.1 3.3 86 1.0 NW 32 56 17 30 1010.1 1003.8 0.0
05/03:30am 5.3 -2.2 3.3 87 0.9 NW 32 46 17 25 1010.1 1003.8 0.0
05/03:17am 5.3 -1.9 3.2 86 1.0 NW 30 48 16 26 1010.1 1003.8 0.0
05/03:00am 5.5 -2.1 3.0 84 1.2 NW 32 46 17 25 1009.9 1003.6 0.0
05/02:30am 5.8 -3.1 2.8 81 1.4 NNW 39 59 21 32 1010.5 1004.2 0.0
05/02:24am 6.0 -2.9 2.8 80 1.5 NNW 39 59 21 32 1010.2 1003.9 0.0
05/02:00am 6.0 -2.7 2.3 77 1.7 NNW 37 54 20 29 1010.8 1004.6 0.0
05/01:35am 6.3 -1.7 1.6 72 2.1 NNW 33 52 18 28 1011.4 1005.2 0.0
05/01:30am 6.4 -2.0 1.5 71 2.2 NNW 35 50 19 27 1011.4 1005.2 0.0
05/01:07am 7.1 -1.7 1.4 67 2.6 NNW 37 57 20 31 1011.7 1005.4 0.0
05/01:00am 7.1 -1.0 1.2 66 2.7 NNW 33 46 18 25 1011.9 1005.7 0.0
05/12:30am 7.7 -1.6 0.9 62 3.1 NNW 39 63 21 34 1012.4 1006.2 0.0
05/12:00am 8.0 -0.7 -0.2 56 3.6 NNW 35 54 19 29 1012.6 1006.4 0.0
 
Date/Time
EDT
Temp
°C
App
Temp
°C
Dew
Point
Rel
Hum
%
Delta-T
°C
Wind Press
QNH
hPa
Press
MSL
hPa
Rain
since 9 am
mm
Dir
 
Spd
km/h
Gust
km/h
Spd
kts
Gust
kts
04/11:41pm 8.0 -0.2 -1.0 53 3.9 NNW 32 54 17 29 1013.1 1006.9 0.0
04/11:30pm 7.8 -0.4 -0.9 54 3.8 NNW 32 46 17 25 1013.3 1007.1 0.0
04/11:00pm 7.9 0.1 -0.8 54 3.8 NNW 30 41 16 22 1013.8 1007.6 0.0
04/10:30pm 8.3 0.1 -1.0 52 4.0 NNW 32 39 17 21 1014.3 1008.1 0.0
04/10:00pm 8.9 0.6 -1.5 48 4.5 NNW 32 43 17 23 1014.5 1008.4 0.0
04/09:49pm 9.0 1.5 -1.7 47 4.6 NNW 28 46 15 25 1014.8 1008.6 0.0
04/09:30pm 9.3 1.7 -2.0 45 4.8 NW 28 43 15 23 1015.0 1008.9 0.0
04/09:00pm 9.5 1.5 -2.1 44 4.9 NNW 30 41 16 22 1015.0 1008.9 0.0
04/08:30pm 9.7 2.1 -1.9 44 5.0 NNW 28 43 15 23 1015.0 1008.9 0.0
04/08:00pm 10.2 2.5 -3.1 39 5.6 NNW 28 41 15 22 1015.0 1008.9 0.0
04/07:30pm 11.0 3.5 -4.2 34 6.3 NNW 26 39 14 21 1015.1 1009.0 0.0
04/07:00pm 11.9 3.3 -4.2 32 6.7 NNW 32 44 17 24 1015.4 1009.2 0.0
04/06:30pm 12.7 5.3 -3.5 32 6.9 NNW 26 37 14 20 1015.5 1009.4 0.0
04/06:00pm 13.6 6.3 -3.2 31 7.3 NW 26 43 14 23 1015.7 1009.6 0.0
04/05:39pm 13.7 5.7 -2.7 32 7.2 NW 30 48 16 26 1015.6 1009.5 0.0
04/05:30pm 14.2 7.0 -1.8 33 7.2 NNW 26 43 14 23 1015.7 1009.6 0.0
04/05:00pm 14.6 7.1 -1.5 33 7.3 NW 28 41 15 22 1015.8 1009.7 0.0
04/04:30pm 14.5 6.5 -2.0 32 7.4 NNW 30 44 16 24 1015.8 1009.7 0.0
04/04:00pm 15.1 7.2 -1.5 32 7.5 NNW 30 43 16 23 1016.3 1010.2 0.0
04/03:30pm 15.3 7.6 -3.1 28 8.1 NNW 28 44 15 24 1016.5 1010.5 0.0
04/03:00pm 15.4 8.1 -2.5 29 8.0 NNW 26 41 14 22 1017.1 1011.1 0.0
04/02:30pm 15.5 8.8 -1.1 32 7.6 NNW 24 41 13 22 1017.3 1011.2 0.0
04/02:00pm 14.9 7.5 -0.8 34 7.2 NW 28 44 15 24 1017.3 1011.2 0.0
04/01:30pm 14.7 7.3 -0.6 35 7.1 NNW 28 35 15 19 1017.4 1011.3 0.0
04/01:00pm 14.6 8.5 0.5 38 6.6 NNW 22 33 12 18 1017.9 1011.8 0.0
04/12:30pm 14.7 9.1 0.9 39 6.6 NNW 20 33 11 18 1018.2 1012.2 0.0
04/12:00pm 14.7 9.6 -1.8 32 7.4 NW 15 28 8 15 1018.6 1012.6 0.0
04/11:30am 14.5 9.4 -1.6 33 7.3 NW 15 24 8 13 1018.8 1012.8 0.0
04/11:00am 14.0 8.7 -7.4 22 8.5 NNW 13 24 7 13 1018.9 1012.9 0.0
04/10:30am 13.8 9.5 -4.8 27 7.8 NNW 9 19 5 10 1019.0 1013.0 0.0
04/10:00am 12.7 6.3 -11.7 17 8.7 WNW 17 26 9 14 1019.2 1013.2 0.0
04/09:30am 12.2 6.9 -12.1 17 8.5 WNW 11 20 6 11 1019.0 1013.0 0.0
04/09:00am 11.2 6.3 -11.5 19 7.9 WNW 9 15 5 8 1019.0 1013.0 0.0
04/08:30am 10.2 4.1 -12.4 19 7.7 WNW 15 20 8 11 1019.0 1013.0 0.0
04/08:00am 9.3 3.2 -12.5 20 7.3 WNW 15 20 8 11 1018.7 1012.7 0.0
04/07:30am 9.5 2.7 -18.4 12 8.2 W 17 24 9 13 1018.3 1012.3 0.0
04/07:00am 8.4 1.4 -11.5 23 6.7 WNW 20 22 11 12 1018.2 1012.2 0.0
04/06:30am 9.0 1.3 -11.0 23 6.9 W 24 32 13 17 1018.0 1011.9 0.0
04/06:00am 8.6 1.0 -9.8 26 6.5 W 24 30 13 16 1017.9 1011.8 0.0
04/05:30am 8.7 1.0 -10.7 24 6.7 W 24 33 13 18 1017.7 1011.7 0.0
04/05:00am 8.6 2.7 -6.0 35 5.6 WNW 17 22 9 12 1017.7 1011.7 0.0
04/04:30am 8.4 2.3 -7.3 32 5.9 WNW 17 26 9 14 1017.9 1011.8 0.0
04/04:00am 8.5 1.6 -6.4 34 5.7 W 22 30 12 16 1018.2 1012.2 0.0
04/03:30am 9.7 3.0 -4.6 36 5.8 W 22 30 12 16 1018.2 1012.2 0.0
04/03:00am 9.6 2.7 -2.3 43 5.0 W 24 30 13 16 1018.7 1012.7 0.0
04/02:30am 9.5 3.6 -0.9 48 4.6 WNW 20 24 11 13 1018.9 1012.9 0.0
04/02:00am 10.3 4.5 -0.2 48 4.7 NW 20 24 11 13 1019.3 1013.3 0.0
04/01:30am 10.7 5.0 0.4 49 4.7 NW 20 24 11 13 1019.5 1013.5 0.0
04/01:00am 11.1 5.1 1.1 50 4.6 NW 22 30 12 16 1019.8 1013.8 0.0
04/12:30am 11.3 5.8 0.7 48 4.9 NW 19 24 10 13 1020.0 1014.0 0.0
04/12:00am 11.3 6.3 1.3 50 4.7 WNW 17 22 9 12 1020.2 1014.3 0.0
 
Date/Time
EDT
Temp
°C
App
Temp
°C
Dew
Point
Rel
Hum
%
Delta-T
°C
Wind Press
QNH
hPa
Press
MSL
hPa
Rain
since 9 am
mm
Dir
 
Spd
km/h
Gust
km/h
Spd
kts
Gust
kts
03/11:30pm 10.9 5.9 1.4 52 4.4 WNW 17 19 9 10 1020.3 1014.4 0.0
03/11:00pm 11.2 6.3 1.7 52 4.5 WNW 17 20 9 11 1020.6 1014.6 0.0
03/10:30pm 11.2 7.7 1.5 51 4.5 NW 9 13 5 7 1020.7 1014.8 0.0
03/10:00pm 11.6 7.7 1.0 48 4.9 NW 11 15 6 8 1020.7 1014.8 0.0
03/09:30pm 11.7 8.1 0.5 46 5.2 NW 9 11 5 6 1020.5 1014.5 0.0
03/09:00pm 12.0 8.0 0.8 46 5.2 NW 11 15 6 8 1020.6 1014.6 0.0
03/08:30pm 12.2 8.0 1.5 48 5.1 NW 13 17 7 9 1020.2 1014.3 0.0
03/08:00pm 12.6 8.6 2.7 51 4.8 NW 13 19 7 10 1020.2 1014.3 0.0
03/07:30pm 13.2 9.2 3.0 50 5.0 NW 13 17 7 9 1020.0 1014.0 0.0
03/07:00pm 14.3 9.9 2.9 46 5.6 NW 15 20 8 11 1019.9 1013.9 0.0
03/06:30pm 15.2 10.9 3.0 44 6.1 NNW 15 22 8 12 1019.9 1013.9 0.0
03/06:00pm 15.4 10.2 2.2 41 6.5 NNW 19 28 10 15 1019.8 1013.8 0.0
03/05:30pm 15.9 11.4 4.0 45 6.1 N 17 32 9 17 1019.8 1013.8 0.0
03/05:00pm 15.1 10.1 1.3 39 6.6 NW 17 28 9 15 1019.8 1013.8 0.0
03/04:30pm 16.7 12.2 4.1 43 6.5 NNW 17 28 9 15 1019.8 1013.8 0.0
03/04:00pm 14.6 10.5 6.4 58 4.4 NNW 17 32 9 17 1019.8 1013.8 0.0
03/03:30pm 16.3 11.1 7.3 55 4.9 N 24 32 13 17 1019.9 1013.9 0.0
03/03:00pm 15.7 10.4 6.7 55 4.8 N 24 32 13 17 1020.2 1014.3 0.0
03/02:30pm 15.2 10.7 6.2 55 4.8 N 19 28 10 15 1020.5 1014.5 0.0
03/02:00pm 15.4 11.5 6.9 57 4.6 N 17 26 9 14 1020.6 1014.6 0.0
03/01:30pm 14.8 10.9 7.1 60 4.2 NNW 17 26 9 14 1020.6 1014.6 0.0
03/01:00pm 14.6 10.9 8.1 65 3.6 N 17 26 9 14 1021.1 1015.1 0.0
03/12:30pm 14.0 9.4 6.6 61 3.9 N 20 30 11 16 1021.2 1015.3 0.0
03/12:00pm 15.1 10.7 7.4 60 4.2 N 20 33 11 18 1021.3 1015.4 0.0
03/11:30am 13.7 10.1 6.6 62 3.8 NNW 15 28 8 15 1021.4 1015.5 0.0
03/11:00am 14.7 10.8 7.3 61 4.0 NW 17 33 9 18 1021.4 1015.5 0.0
03/10:30am 13.1 8.7 6.7 65 3.4 NW 19 28 10 15 1021.1 1015.1 0.0
03/10:00am 12.1 7.3 5.7 65 3.3 NNW 20 30 11 16 1020.9 1015.0 0.0
03/09:30am 12.1 8.7 5.7 65 3.3 NNW 13 17 7 9 1020.8 1014.9 0.0
03/09:00am 12.1 8.7 5.7 65 3.3 NW 13 17 7 9 1020.8 1014.9 0.0
03/08:30am 11.2 7.2 5.1 66 3.1 WNW 15 19 8 10 1020.7 1014.8 0.0
03/08:00am 11.2 7.6 4.9 65 3.2 WNW 13 15 7 8 1020.7 1014.8 0.0
03/07:30am 10.7 6.6 4.6 66 3.0 WNW 15 19 8 10 1020.3 1014.4 0.0
03/07:00am 11.1 6.7 5.0 66 3.1 WNW 17 20 9 11 1020.0 1014.0 0.0
03/06:30am 11.1 6.2 5.2 67 3.0 W 20 26 11 14 1019.9 1013.9 0.0
03/06:00am 11.6 6.4 5.3 65 3.2 WNW 22 28 12 15 1019.4 1013.4 0.0
03/05:30am 11.7 6.5 5.6 66 3.1 WNW 22 28 12 15 1019.2 1013.2 0.0
03/05:00am 11.5 6.9 5.6 67 3.0 WNW 19 22 10 12 1019.3 1013.3 0.0
03/04:30am 11.5 6.9 5.4 66 3.1 WNW 19 20 10 11 1019.2 1013.2 0.0
03/04:00am 11.5 6.3 5.4 66 3.1 WNW 22 26 12 14 1019.2 1013.2 0.0
03/03:30am 11.9 7.1 5.5 65 3.3 WNW 20 26 11 14 1019.4 1013.4 0.0
03/03:00am 12.0 6.8 5.6 65 3.3 WNW 22 28 12 15 1019.4 1013.4 0.0
03/02:30am 11.9 6.0 5.8 66 3.2 NW 26 33 14 18 1019.3 1013.3 0.0
03/02:00am 11.9 6.0 6.0 67 3.1 NW 26 30 14 16 1020.0 1014.0 0.0
03/01:30am 11.8 6.3 6.1 68 3.0 NW 24 30 13 16 1019.9 1013.9 0.0
03/01:00am 11.8 6.0 6.1 68 3.0 NW 26 30 14 16 1020.0 1014.0 0.0
03/12:30am 11.9 5.7 6.2 68 3.0 NW 28 32 15 17 1020.2 1014.3 0.0
03/12:00am 12.0 6.1 5.9 66 3.2 NW 26 30 14 16 1020.5 1014.5 0.0
 
Date/Time
EDT
Temp
°C
App
Temp
°C
Dew
Point
Rel
Hum
%
Delta-T
°C
Wind Press
QNH
hPa
Press
MSL
hPa
Rain
since 9 am
mm
Dir
 
Spd
km/h
Gust
km/h
Spd
kts
Gust
kts
02/11:30pm 11.9 6.1 6.2 68 3.0 NW 26 33 14 18 1020.5 1014.5 0.0
02/11:00pm 11.7 5.8 6.0 68 2.9 NW 26 32 14 17 1020.9 1015.0 0.0
02/10:30pm 11.5 5.1 5.2 65 3.2 NW 28 35 15 19 1021.3 1015.4 0.0
02/10:00pm 11.4 4.7 3.7 59 3.8 NW 28 33 15 18 1021.2 1015.3 0.0
02/09:30pm 11.2 5.0 2.0 53 4.4 NW 24 32 13 17 1021.1 1015.1 0.0
02/09:00pm 11.0 5.1 1.5 52 4.4 NNW 22 32 12 17 1020.8 1014.9 0.0
02/08:30pm 10.4 6.6 3.7 63 3.3 NNW 13 20 7 11 1020.5 1014.5 0.0
02/08:00pm 10.3 5.7 3.8 64 3.2 NNW 17 22 9 12 1020.5 1014.5 0.0
02/07:30pm 10.6 6.8 4.1 64 3.2 NNW 13 20 7 11 1020.3 1014.4 0.0
02/07:00pm 11.5 6.9 3.8 59 3.8 NNW 17 22 9 12 1020.2 1014.3 0.0
02/06:30pm 12.2 7.6 3.9 57 4.1 NW 17 20 9 11 1019.9 1013.9 0.0
02/06:00pm 12.6 8.2 2.7 51 4.8 NW 15 20 8 11 1019.5 1013.5 0.0
02/05:30pm 12.5 8.5 2.7 51 4.8 N 13 17 7 9 1019.6 1013.7 0.0
02/05:00pm 14.1 10.1 2.7 46 5.6 NNW 13 19 7 10 1019.9 1013.9 0.0
02/04:30pm 13.2 9.8 4.1 54 4.6 NNW 11 17 6 9 1020.0 1014.0 0.0
02/04:00pm 13.7 10.3 4.0 52 4.9 NW 11 17 6 9 1020.6 1014.6 0.0
02/03:30pm 13.3 9.6 4.5 55 4.5 N 13 19 7 10 1020.1 1014.2 0.0
02/03:00pm 13.7 9.3 4.6 54 4.6 N 17 24 9 13 1020.7 1014.8 0.0
02/02:30pm 12.8 7.8 3.5 53 4.6 N 19 26 10 14 1020.9 1015.0 0.0
02/02:00pm 13.3 8.9 4.5 55 4.5 NNW 17 24 9 13 1020.9 1015.0 0.0
02/01:30pm 13.0 7.9 3.9 54 4.6 NNW 20 30 11 16 1021.2 1015.3 0.0
02/01:00pm 11.5 6.2 3.0 56 4.1 N 20 30 11 16 1021.1 1015.1 0.0
02/12:30pm 11.7 6.3 4.7 62 3.5 N 22 33 12 18 1021.4 1015.5 0.0
02/12:00pm 12.8 8.0 5.5 61 3.8 N 20 33 11 18 1021.8 1015.9 0.0
02/11:30am 11.7 6.8 4.9 63 3.4 N 20 28 11 15 1021.8 1015.9 0.0

Other Formats:

Comma delimited format used in spreadsheet applications
http://www.bom.gov.au/fwo/IDV60801/IDV60801.94903.axf

JavaScript Object Notation format (JSON) in row-major order
http://www.bom.gov.au/fwo/IDV60801/IDV60801.94903.json